sensor_id;sensor_type;location;lat;lon;timestamp;P1;durP1;ratioP1;P2;durP2;ratioP2
60999;SDS011;46879;45.658;11.814;2023-07-09T00:02:48;5.00;;;3.63;;
60999;SDS011;46879;45.658;11.814;2023-07-09T00:07:49;6.95;;;4.22;;
60999;SDS011;46879;45.658;11.814;2023-07-09T00:12:50;5.07;;;4.15;;
60999;SDS011;46879;45.658;11.814;2023-07-09T00:17:50;11.77;;;3.85;;
60999;SDS011;46879;45.658;11.814;2023-07-09T00:22:51;6.30;;;4.63;;
60999;SDS011;46879;45.658;11.814;2023-07-09T00:27:54;6.65;;;4.65;;
60999;SDS011;46879;45.658;11.814;2023-07-09T00:32:55;5.47;;;4.13;;
60999;SDS011;46879;45.658;11.814;2023-07-09T00:37:56;4.90;;;4.32;;
60999;SDS011;46879;45.658;11.814;2023-07-09T00:43:00;5.82;;;4.68;;
60999;SDS011;46879;45.658;11.814;2023-07-09T00:48:02;9.10;;;4.60;;
60999;SDS011;46879;45.658;11.814;2023-07-09T00:53:14;7.25;;;4.35;;
60999;SDS011;46879;45.658;11.814;2023-07-09T00:58:26;6.60;;;4.43;;
60999;SDS011;46879;45.658;11.814;2023-07-09T01:03:49;4.65;;;3.90;;
60999;SDS011;46879;45.658;11.814;2023-07-09T01:08:56;9.27;;;4.20;;
60999;SDS011;46879;45.658;11.814;2023-07-09T01:13:58;10.40;;;3.83;;
60999;SDS011;46879;45.658;11.814;2023-07-09T01:19:01;4.90;;;3.97;;
60999;SDS011;46879;45.658;11.814;2023-07-09T01:24:12;6.07;;;4.45;;
60999;SDS011;46879;45.658;11.814;2023-07-09T01:29:29;6.07;;;4.25;;
60999;SDS011;46879;45.658;11.814;2023-07-09T01:34:33;6.43;;;4.83;;
60999;SDS011;46879;45.658;11.814;2023-07-09T01:39:34;6.80;;;4.22;;
60999;SDS011;46879;45.658;11.814;2023-07-09T01:44:36;4.93;;;4.00;;
60999;SDS011;46879;45.658;11.814;2023-07-09T01:49:38;9.98;;;4.07;;
60999;SDS011;46879;45.658;11.814;2023-07-09T01:54:39;7.00;;;4.10;;
60999;SDS011;46879;45.658;11.814;2023-07-09T01:59:40;3.95;;;3.55;;
60999;SDS011;46879;45.658;11.814;2023-07-09T02:04:45;5.65;;;3.95;;
60999;SDS011;46879;45.658;11.814;2023-07-09T02:09:53;6.57;;;4.28;;
60999;SDS011;46879;45.658;11.814;2023-07-09T02:14:54;6.30;;;3.88;;
60999;SDS011;46879;45.658;11.814;2023-07-09T02:19:54;12.35;;;4.53;;
60999;SDS011;46879;45.658;11.814;2023-07-09T02:24:55;5.05;;;3.85;;
60999;SDS011;46879;45.658;11.814;2023-07-09T02:29:56;4.45;;;4.05;;
60999;SDS011;46879;45.658;11.814;2023-07-09T02:34:56;5.30;;;3.65;;
60999;SDS011;46879;45.658;11.814;2023-07-09T02:39:57;4.22;;;3.42;;
60999;SDS011;46879;45.658;11.814;2023-07-09T02:44:57;6.80;;;4.25;;
60999;SDS011;46879;45.658;11.814;2023-07-09T02:49:58;4.85;;;3.83;;
60999;SDS011;46879;45.658;11.814;2023-07-09T02:54:58;4.35;;;3.90;;
60999;SDS011;46879;45.658;11.814;2023-07-09T02:59:59;7.43;;;3.63;;
60999;SDS011;46879;45.658;11.814;2023-07-09T03:05:00;6.68;;;4.05;;
60999;SDS011;46879;45.658;11.814;2023-07-09T03:10:00;5.53;;;3.78;;
60999;SDS011;46879;45.658;11.814;2023-07-09T03:15:01;4.90;;;3.92;;
60999;SDS011;46879;45.658;11.814;2023-07-09T03:20:02;4.55;;;3.90;;
60999;SDS011;46879;45.658;11.814;2023-07-09T03:25:03;4.75;;;3.50;;
60999;SDS011;46879;45.658;11.814;2023-07-09T03:30:04;4.78;;;3.80;;
60999;SDS011;46879;45.658;11.814;2023-07-09T03:35:05;5.47;;;4.57;;
60999;SDS011;46879;45.658;11.814;2023-07-09T03:40:09;4.63;;;3.75;;
60999;SDS011;46879;45.658;11.814;2023-07-09T03:45:10;5.65;;;3.63;;
60999;SDS011;46879;45.658;11.814;2023-07-09T03:50:11;4.93;;;3.55;;
60999;SDS011;46879;45.658;11.814;2023-07-09T03:55:11;4.25;;;3.70;;
60999;SDS011;46879;45.658;11.814;2023-07-09T04:00:13;3.70;;;3.33;;
60999;SDS011;46879;45.658;11.814;2023-07-09T04:05:14;5.63;;;4.00;;
60999;SDS011;46879;45.658;11.814;2023-07-09T04:10:15;4.28;;;3.67;;
60999;SDS011;46879;45.658;11.814;2023-07-09T04:15:16;4.78;;;4.00;;
60999;SDS011;46879;45.658;11.814;2023-07-09T04:20:17;6.82;;;3.67;;
60999;SDS011;46879;45.658;11.814;2023-07-09T04:25:17;6.72;;;3.80;;
60999;SDS011;46879;45.658;11.814;2023-07-09T04:30:18;4.47;;;3.38;;
60999;SDS011;46879;45.658;11.814;2023-07-09T04:35:19;6.10;;;4.20;;
60999;SDS011;46879;45.658;11.814;2023-07-09T04:40:20;5.50;;;3.70;;
60999;SDS011;46879;45.658;11.814;2023-07-09T04:45:20;6.47;;;3.58;;
60999;SDS011;46879;45.658;11.814;2023-07-09T04:50:21;5.45;;;4.40;;
60999;SDS011;46879;45.658;11.814;2023-07-09T04:55:22;6.63;;;4.60;;
60999;SDS011;46879;45.658;11.814;2023-07-09T05:00:23;8.65;;;4.88;;
60999;SDS011;46879;45.658;11.814;2023-07-09T05:05:24;5.75;;;4.57;;
60999;SDS011;46879;45.658;11.814;2023-07-09T05:10:24;6.47;;;5.03;;
60999;SDS011;46879;45.658;11.814;2023-07-09T05:15:25;6.00;;;4.60;;
60999;SDS011;46879;45.658;11.814;2023-07-09T05:20:25;7.72;;;4.70;;
60999;SDS011;46879;45.658;11.814;2023-07-09T05:25:26;6.45;;;4.55;;
60999;SDS011;46879;45.658;11.814;2023-07-09T05:30:27;7.53;;;4.90;;
60999;SDS011;46879;45.658;11.814;2023-07-09T05:35:27;10.13;;;4.72;;
60999;SDS011;46879;45.658;11.814;2023-07-09T05:40:28;4.63;;;4.22;;
60999;SDS011;46879;45.658;11.814;2023-07-09T05:45:28;5.63;;;4.22;;
60999;SDS011;46879;45.658;11.814;2023-07-09T05:50:32;5.57;;;4.47;;
60999;SDS011;46879;45.658;11.814;2023-07-09T05:55:34;5.30;;;4.28;;
60999;SDS011;46879;45.658;11.814;2023-07-09T06:00:35;6.18;;;4.10;;
60999;SDS011;46879;45.658;11.814;2023-07-09T06:05:37;4.57;;;4.18;;
60999;SDS011;46879;45.658;11.814;2023-07-09T06:10:38;9.40;;;5.00;;
60999;SDS011;46879;45.658;11.814;2023-07-09T06:15:42;7.78;;;4.60;;
60999;SDS011;46879;45.658;11.814;2023-07-09T06:20:46;7.55;;;4.30;;
60999;SDS011;46879;45.658;11.814;2023-07-09T06:25:54;6.75;;;5.10;;
60999;SDS011;46879;45.658;11.814;2023-07-09T06:30:55;5.35;;;4.13;;
60999;SDS011;46879;45.658;11.814;2023-07-09T06:35:57;5.43;;;4.75;;
60999;SDS011;46879;45.658;11.814;2023-07-09T06:41:00;8.52;;;5.32;;
60999;SDS011;46879;45.658;11.814;2023-07-09T06:46:02;6.65;;;5.53;;
60999;SDS011;46879;45.658;11.814;2023-07-09T06:51:02;7.47;;;4.60;;
60999;SDS011;46879;45.658;11.814;2023-07-09T06:56:03;5.60;;;4.50;;
60999;SDS011;46879;45.658;11.814;2023-07-09T07:01:04;6.60;;;4.80;;
60999;SDS011;46879;45.658;11.814;2023-07-09T07:06:05;6.03;;;4.65;;
60999;SDS011;46879;45.658;11.814;2023-07-09T07:11:06;6.75;;;5.20;;
60999;SDS011;46879;45.658;11.814;2023-07-09T07:16:08;8.15;;;4.90;;
60999;SDS011;46879;45.658;11.814;2023-07-09T07:21:11;7.80;;;5.18;;
60999;SDS011;46879;45.658;11.814;2023-07-09T07:26:12;11.15;;;5.05;;
60999;SDS011;46879;45.658;11.814;2023-07-09T07:31:12;9.98;;;5.47;;
60999;SDS011;46879;45.658;11.814;2023-07-09T07:36:13;8.02;;;5.90;;
60999;SDS011;46879;45.658;11.814;2023-07-09T07:41:13;11.75;;;5.47;;
60999;SDS011;46879;45.658;11.814;2023-07-09T07:46:14;6.93;;;5.25;;
60999;SDS011;46879;45.658;11.814;2023-07-09T07:51:15;9.73;;;5.03;;
60999;SDS011;46879;45.658;11.814;2023-07-09T07:56:16;12.05;;;5.00;;
60999;SDS011;46879;45.658;11.814;2023-07-09T08:01:16;6.88;;;5.40;;
60999;SDS011;46879;45.658;11.814;2023-07-09T08:06:17;7.20;;;5.10;;
60999;SDS011;46879;45.658;11.814;2023-07-09T08:11:18;8.15;;;4.95;;
60999;SDS011;46879;45.658;11.814;2023-07-09T08:16:18;6.03;;;4.30;;
60999;SDS011;46879;45.658;11.814;2023-07-09T08:21:19;6.13;;;4.75;;
60999;SDS011;46879;45.658;11.814;2023-07-09T08:26:19;8.32;;;4.75;;
60999;SDS011;46879;45.658;11.814;2023-07-09T08:31:20;4.90;;;4.40;;
60999;SDS011;46879;45.658;11.814;2023-07-09T08:36:21;6.93;;;5.07;;
60999;SDS011;46879;45.658;11.814;2023-07-09T08:46:54;6.22;;;4.90;;
60999;SDS011;46879;45.658;11.814;2023-07-09T08:52:35;7.40;;;5.40;;
60999;SDS011;46879;45.658;11.814;2023-07-09T08:57:39;9.55;;;5.40;;
60999;SDS011;46879;45.658;11.814;2023-07-09T09:02:49;10.68;;;5.13;;
60999;SDS011;46879;45.658;11.814;2023-07-09T09:07:58;7.30;;;5.80;;
60999;SDS011;46879;45.658;11.814;2023-07-09T09:23:38;6.93;;;4.82;;
60999;SDS011;46879;45.658;11.814;2023-07-09T09:28:48;7.75;;;5.20;;
60999;SDS011;46879;45.658;11.814;2023-07-09T09:33:49;8.30;;;5.72;;
60999;SDS011;46879;45.658;11.814;2023-07-09T09:38:51;6.80;;;5.65;;
60999;SDS011;46879;45.658;11.814;2023-07-09T09:43:53;7.70;;;5.78;;
60999;SDS011;46879;45.658;11.814;2023-07-09T09:48:55;12.68;;;6.88;;
60999;SDS011;46879;45.658;11.814;2023-07-09T09:54:00;11.02;;;7.03;;
60999;SDS011;46879;45.658;11.814;2023-07-09T09:59:03;9.57;;;6.28;;
60999;SDS011;46879;45.658;11.814;2023-07-09T10:04:05;8.98;;;5.35;;
60999;SDS011;46879;45.658;11.814;2023-07-09T10:20:37;10.02;;;6.38;;
60999;SDS011;46879;45.658;11.814;2023-07-09T10:43:13;14.27;;;6.95;;
60999;SDS011;46879;45.658;11.814;2023-07-09T10:47:47;9.07;;;6.18;;
60999;SDS011;46879;45.658;11.814;2023-07-09T10:58:46;16.98;;;6.57;;
60999;SDS011;46879;45.658;11.814;2023-07-09T11:09:26;12.70;;;5.93;;
60999;SDS011;46879;45.658;11.814;2023-07-09T11:14:34;7.88;;;6.53;;
60999;SDS011;46879;45.658;11.814;2023-07-09T11:19:45;8.05;;;6.25;;
60999;SDS011;46879;45.658;11.814;2023-07-09T11:24:49;9.02;;;6.80;;
60999;SDS011;46879;45.658;11.814;2023-07-09T11:30:45;12.13;;;6.22;;
60999;SDS011;46879;45.658;11.814;2023-07-09T11:35:28;10.52;;;5.95;;
60999;SDS011;46879;45.658;11.814;2023-07-09T11:40:51;11.82;;;6.38;;
60999;SDS011;46879;45.658;11.814;2023-07-09T11:45:54;11.83;;;6.63;;
60999;SDS011;46879;45.658;11.814;2023-07-09T11:51:00;9.38;;;6.97;;
60999;SDS011;46879;45.658;11.814;2023-07-09T11:56:13;11.38;;;6.20;;
60999;SDS011;46879;45.658;11.814;2023-07-09T12:01:15;8.82;;;6.63;;
60999;SDS011;46879;45.658;11.814;2023-07-09T12:06:21;14.77;;;7.13;;
60999;SDS011;46879;45.658;11.814;2023-07-09T12:11:28;10.15;;;7.05;;
60999;SDS011;46879;45.658;11.814;2023-07-09T12:16:34;10.65;;;6.60;;
60999;SDS011;46879;45.658;11.814;2023-07-09T12:21:44;10.02;;;7.03;;
60999;SDS011;46879;45.658;11.814;2023-07-09T12:26:49;9.07;;;6.13;;
60999;SDS011;46879;45.658;11.814;2023-07-09T12:31:52;10.23;;;6.35;;
60999;SDS011;46879;45.658;11.814;2023-07-09T12:36:52;10.57;;;6.28;;
60999;SDS011;46879;45.658;11.814;2023-07-09T12:41:55;10.52;;;6.50;;
60999;SDS011;46879;45.658;11.814;2023-07-09T12:46:59;12.77;;;6.55;;
60999;SDS011;46879;45.658;11.814;2023-07-09T12:52:01;14.02;;;7.00;;
60999;SDS011;46879;45.658;11.814;2023-07-09T12:57:03;10.15;;;5.95;;
60999;SDS011;46879;45.658;11.814;2023-07-09T13:02:18;12.65;;;6.43;;
60999;SDS011;46879;45.658;11.814;2023-07-09T13:07:27;15.63;;;6.80;;
60999;SDS011;46879;45.658;11.814;2023-07-09T13:12:38;11.13;;;6.32;;
60999;SDS011;46879;45.658;11.814;2023-07-09T13:17:41;9.82;;;6.35;;
60999;SDS011;46879;45.658;11.814;2023-07-09T13:22:43;12.77;;;6.38;;
60999;SDS011;46879;45.658;11.814;2023-07-09T13:27:44;13.18;;;6.55;;
60999;SDS011;46879;45.658;11.814;2023-07-09T13:32:46;9.48;;;7.07;;
60999;SDS011;46879;45.658;11.814;2023-07-09T13:37:49;7.80;;;5.85;;
60999;SDS011;46879;45.658;11.814;2023-07-09T13:42:51;12.43;;;6.63;;
60999;SDS011;46879;45.658;11.814;2023-07-09T13:47:55;12.15;;;6.03;;
60999;SDS011;46879;45.658;11.814;2023-07-09T13:52:56;8.23;;;5.68;;
60999;SDS011;46879;45.658;11.814;2023-07-09T13:57:58;7.72;;;6.15;;
60999;SDS011;46879;45.658;11.814;2023-07-09T14:02:59;8.07;;;6.32;;
60999;SDS011;46879;45.658;11.814;2023-07-09T14:08:02;10.07;;;6.57;;
60999;SDS011;46879;45.658;11.814;2023-07-09T14:13:04;15.13;;;6.10;;
60999;SDS011;46879;45.658;11.814;2023-07-09T14:18:13;9.13;;;5.63;;
60999;SDS011;46879;45.658;11.814;2023-07-09T14:23:19;13.10;;;6.50;;
60999;SDS011;46879;45.658;11.814;2023-07-09T14:28:21;7.82;;;6.22;;
60999;SDS011;46879;45.658;11.814;2023-07-09T14:33:23;8.27;;;6.07;;
60999;SDS011;46879;45.658;11.814;2023-07-09T14:38:25;10.45;;;5.95;;
60999;SDS011;46879;45.658;11.814;2023-07-09T14:43:26;9.73;;;5.90;;
60999;SDS011;46879;45.658;11.814;2023-07-09T14:48:28;9.70;;;6.22;;
60999;SDS011;46879;45.658;11.814;2023-07-09T14:53:30;9.73;;;6.43;;
60999;SDS011;46879;45.658;11.814;2023-07-09T14:58:31;8.18;;;6.00;;
60999;SDS011;46879;45.658;11.814;2023-07-09T15:03:33;9.05;;;5.75;;
60999;SDS011;46879;45.658;11.814;2023-07-09T15:08:34;6.70;;;5.35;;
60999;SDS011;46879;45.658;11.814;2023-07-09T15:13:38;10.68;;;5.70;;
60999;SDS011;46879;45.658;11.814;2023-07-09T15:18:39;9.57;;;6.35;;
60999;SDS011;46879;45.658;11.814;2023-07-09T15:23:41;12.50;;;6.40;;
60999;SDS011;46879;45.658;11.814;2023-07-09T15:28:45;15.52;;;6.30;;
60999;SDS011;46879;45.658;11.814;2023-07-09T15:33:50;9.23;;;6.35;;
60999;SDS011;46879;45.658;11.814;2023-07-09T15:38:52;8.15;;;5.78;;
60999;SDS011;46879;45.658;11.814;2023-07-09T15:43:53;9.02;;;5.00;;
60999;SDS011;46879;45.658;11.814;2023-07-09T15:48:55;7.68;;;5.25;;
60999;SDS011;46879;45.658;11.814;2023-07-09T15:53:56;12.77;;;6.05;;
60999;SDS011;46879;45.658;11.814;2023-07-09T15:58:58;7.85;;;6.05;;
60999;SDS011;46879;45.658;11.814;2023-07-09T16:04:01;6.45;;;5.25;;
60999;SDS011;46879;45.658;11.814;2023-07-09T16:09:08;6.55;;;5.32;;
60999;SDS011;46879;45.658;11.814;2023-07-09T16:14:28;12.45;;;5.88;;
60999;SDS011;46879;45.658;11.814;2023-07-09T16:19:32;7.43;;;5.47;;
60999;SDS011;46879;45.658;11.814;2023-07-09T16:24:35;8.93;;;5.40;;
60999;SDS011;46879;45.658;11.814;2023-07-09T16:29:37;5.50;;;4.72;;
60999;SDS011;46879;45.658;11.814;2023-07-09T16:34:38;5.40;;;4.90;;
60999;SDS011;46879;45.658;11.814;2023-07-09T16:39:42;8.23;;;5.63;;
60999;SDS011;46879;45.658;11.814;2023-07-09T16:44:44;8.70;;;5.35;;
60999;SDS011;46879;45.658;11.814;2023-07-09T16:49:46;8.80;;;5.30;;
60999;SDS011;46879;45.658;11.814;2023-07-09T16:54:48;5.47;;;4.93;;
60999;SDS011;46879;45.658;11.814;2023-07-09T16:59:50;6.03;;;4.60;;
60999;SDS011;46879;45.658;11.814;2023-07-09T17:04:59;5.30;;;4.80;;
60999;SDS011;46879;45.658;11.814;2023-07-09T17:10:07;5.80;;;4.60;;
60999;SDS011;46879;45.658;11.814;2023-07-09T17:20:29;8.20;;;5.55;;
60999;SDS011;46879;45.658;11.814;2023-07-09T17:25:33;7.18;;;4.80;;
60999;SDS011;46879;45.658;11.814;2023-07-09T17:30:37;6.78;;;5.00;;
60999;SDS011;46879;45.658;11.814;2023-07-09T17:35:41;6.65;;;5.10;;
60999;SDS011;46879;45.658;11.814;2023-07-09T17:40:44;5.80;;;5.20;;
60999;SDS011;46879;45.658;11.814;2023-07-09T17:45:46;6.53;;;4.80;;
60999;SDS011;46879;45.658;11.814;2023-07-09T17:50:50;5.70;;;4.85;;
60999;SDS011;46879;45.658;11.814;2023-07-09T17:55:53;6.53;;;4.70;;
60999;SDS011;46879;45.658;11.814;2023-07-09T18:00:58;6.28;;;4.97;;
60999;SDS011;46879;45.658;11.814;2023-07-09T18:06:05;6.18;;;4.72;;
60999;SDS011;46879;45.658;11.814;2023-07-09T18:11:24;5.82;;;4.70;;
60999;SDS011;46879;45.658;11.814;2023-07-09T18:16:29;5.30;;;4.80;;
60999;SDS011;46879;45.658;11.814;2023-07-09T18:21:32;5.68;;;5.10;;
60999;SDS011;46879;45.658;11.814;2023-07-09T18:26:33;5.85;;;5.10;;
60999;SDS011;46879;45.658;11.814;2023-07-09T18:31:35;5.30;;;4.80;;
60999;SDS011;46879;45.658;11.814;2023-07-09T18:36:37;7.20;;;4.63;;
60999;SDS011;46879;45.658;11.814;2023-07-09T18:41:38;6.00;;;4.65;;
60999;SDS011;46879;45.658;11.814;2023-07-09T18:46:39;5.18;;;4.57;;
60999;SDS011;46879;45.658;11.814;2023-07-09T18:51:41;4.60;;;4.20;;
60999;SDS011;46879;45.658;11.814;2023-07-09T18:56:45;5.80;;;4.65;;
60999;SDS011;46879;45.658;11.814;2023-07-09T19:01:48;8.15;;;4.85;;
60999;SDS011;46879;45.658;11.814;2023-07-09T19:06:50;10.68;;;5.53;;
60999;SDS011;46879;45.658;11.814;2023-07-09T19:11:53;17.02;;;6.38;;
60999;SDS011;46879;45.658;11.814;2023-07-09T19:16:55;19.90;;;5.70;;
60999;SDS011;46879;45.658;11.814;2023-07-09T19:22:02;10.05;;;5.63;;
60999;SDS011;46879;45.658;11.814;2023-07-09T19:27:04;8.80;;;5.18;;
60999;SDS011;46879;45.658;11.814;2023-07-09T19:32:11;7.97;;;5.03;;
60999;SDS011;46879;45.658;11.814;2023-07-09T19:37:27;8.05;;;5.13;;
60999;SDS011;46879;45.658;11.814;2023-07-09T19:42:29;6.25;;;4.53;;
60999;SDS011;46879;45.658;11.814;2023-07-09T19:47:31;9.32;;;5.00;;
60999;SDS011;46879;45.658;11.814;2023-07-09T19:52:35;9.27;;;5.43;;
60999;SDS011;46879;45.658;11.814;2023-07-09T19:57:37;8.13;;;4.55;;
60999;SDS011;46879;45.658;11.814;2023-07-09T20:02:38;6.38;;;4.80;;
60999;SDS011;46879;45.658;11.814;2023-07-09T20:07:43;6.05;;;4.43;;
60999;SDS011;46879;45.658;11.814;2023-07-09T20:12:45;12.93;;;4.40;;
60999;SDS011;46879;45.658;11.814;2023-07-09T20:17:51;6.07;;;5.10;;
60999;SDS011;46879;45.658;11.814;2023-07-09T20:22:59;8.20;;;5.32;;
60999;SDS011;46879;45.658;11.814;2023-07-09T20:28:01;6.43;;;5.13;;
60999;SDS011;46879;45.658;11.814;2023-07-09T20:33:14;8.85;;;4.70;;
60999;SDS011;46879;45.658;11.814;2023-07-09T20:38:17;16.83;;;5.20;;
60999;SDS011;46879;45.658;11.814;2023-07-09T20:43:27;8.55;;;5.05;;
60999;SDS011;46879;45.658;11.814;2023-07-09T20:48:37;8.00;;;5.90;;
60999;SDS011;46879;45.658;11.814;2023-07-09T20:53:41;11.05;;;5.30;;
60999;SDS011;46879;45.658;11.814;2023-07-09T20:58:43;8.18;;;5.32;;
60999;SDS011;46879;45.658;11.814;2023-07-09T21:03:45;13.23;;;5.53;;
60999;SDS011;46879;45.658;11.814;2023-07-09T21:08:46;8.35;;;5.93;;
60999;SDS011;46879;45.658;11.814;2023-07-09T21:13:48;17.90;;;5.88;;
60999;SDS011;46879;45.658;11.814;2023-07-09T21:18:49;12.25;;;5.93;;
60999;SDS011;46879;45.658;11.814;2023-07-09T21:23:51;12.93;;;6.05;;
60999;SDS011;46879;45.658;11.814;2023-07-09T21:28:55;9.68;;;5.70;;
60999;SDS011;46879;45.658;11.814;2023-07-09T21:34:23;10.70;;;5.93;;
60999;SDS011;46879;45.658;11.814;2023-07-09T21:39:37;14.45;;;5.90;;
60999;SDS011;46879;45.658;11.814;2023-07-09T21:44:39;11.18;;;5.80;;
60999;SDS011;46879;45.658;11.814;2023-07-09T21:49:41;14.90;;;5.05;;
60999;SDS011;46879;45.658;11.814;2023-07-09T21:54:43;7.65;;;5.47;;
60999;SDS011;46879;45.658;11.814;2023-07-09T21:59:47;7.53;;;4.45;;
60999;SDS011;46879;45.658;11.814;2023-07-09T22:04:48;11.52;;;4.60;;
60999;SDS011;46879;45.658;11.814;2023-07-09T22:09:54;13.75;;;5.00;;
60999;SDS011;46879;45.658;11.814;2023-07-09T22:14:56;14.00;;;4.78;;
60999;SDS011;46879;45.658;11.814;2023-07-09T22:20:02;12.35;;;4.40;;
60999;SDS011;46879;45.658;11.814;2023-07-09T22:25:05;10.02;;;4.78;;
60999;SDS011;46879;45.658;11.814;2023-07-09T22:30:13;7.65;;;4.80;;
60999;SDS011;46879;45.658;11.814;2023-07-09T22:35:15;9.35;;;4.15;;
60999;SDS011;46879;45.658;11.814;2023-07-09T22:40:22;7.93;;;4.10;;
60999;SDS011;46879;45.658;11.814;2023-07-09T22:45:26;6.25;;;4.15;;
60999;SDS011;46879;45.658;11.814;2023-07-09T22:50:35;8.15;;;4.28;;
60999;SDS011;46879;45.658;11.814;2023-07-09T22:55:38;7.72;;;4.38;;
60999;SDS011;46879;45.658;11.814;2023-07-09T23:05:51;7.10;;;4.28;;
60999;SDS011;46879;45.658;11.814;2023-07-09T23:10:52;8.25;;;4.28;;
60999;SDS011;46879;45.658;11.814;2023-07-09T23:15:56;5.53;;;3.95;;
60999;SDS011;46879;45.658;11.814;2023-07-09T23:20:56;10.00;;;3.97;;
60999;SDS011;46879;45.658;11.814;2023-07-09T23:25:57;4.45;;;3.90;;
60999;SDS011;46879;45.658;11.814;2023-07-09T23:30:58;4.43;;;3.67;;
60999;SDS011;46879;45.658;11.814;2023-07-09T23:36:01;8.65;;;4.35;;
60999;SDS011;46879;45.658;11.814;2023-07-09T23:41:03;6.13;;;4.07;;
60999;SDS011;46879;45.658;11.814;2023-07-09T23:46:15;5.65;;;4.05;;
60999;SDS011;46879;45.658;11.814;2023-07-09T23:51:16;7.07;;;4.38;;
